Time;durP1;ratioP1;P1;durP2;ratioP2;P2;SDS_P1;SDS_P2;PMS_P1;PMS_P2;Temp;Humidity;BMP_temperature;BMP_pressure;BME280_temperature;BME280_humidity;BME280_pressure;Samples;Min_cycle;Max_cycle;Signal;HPM_P1;HPM_P2
2022/11/11 00:01:22;;;;;;;279.03;83.47;;;;;;;;;;6197266;28;20029;-77
2022/11/11 00:04:22;;;;;;;256.38;77.80;;;;;;;;;;6196778;28;20449;-76
2022/11/11 00:07:22;;;;;;;244.63;72.00;;;;;;;;;;6201387;28;20272;-77
2022/11/11 00:10:22;;;;;;;291.67;77.83;;;;;;;;;;6202594;28;20088;-77
2022/11/11 00:13:22;;;;;;;286.95;74.80;;;;;;;;;;6184484;28;20015;-76
2022/11/11 00:16:23;;;;;;;273.98;70.90;;;;;;;;;;6183406;28;20048;-77
2022/11/11 00:26:00;;;;;;;294.77;81.53;;;;;;;;;;6201898;28;20018;-76
2022/11/11 00:29:01;;;;;;;232.30;76.32;;;;;;;;;;6201869;28;20029;-76
2022/11/11 00:38:45;;;;;;;177.30;68.68;;;;;;;;;;6202431;28;20026;-76
2022/11/11 00:41:45;;;;;;;209.20;74.60;;;;;;;;;;6183619;28;20025;-76
2022/11/11 00:44:45;;;;;;;266.80;82.40;;;;;;;;;;6201258;28;20022;-76
2022/11/11 00:51:05;;;;;;;184.68;79.82;;;;;;;;;;6201268;28;20478;-77
2022/11/11 00:54:05;;;;;;;195.52;78.75;;;;;;;;;;6202919;28;20286;-77
2022/11/11 00:57:05;;;;;;;154.97;73.80;;;;;;;;;;6182212;28;20027;-76
2022/11/11 01:00:06;;;;;;;156.20;70.15;;;;;;;;;;6201803;28;20458;-77
2022/11/11 01:03:06;;;;;;;138.40;68.03;;;;;;;;;;6182882;28;20018;-77
2022/11/11 01:06:06;;;;;;;140.60;68.77;;;;;;;;;;6199949;28;20394;-76
2022/11/11 01:09:07;;;;;;;131.23;68.30;;;;;;;;;;6197801;28;20391;-76
2022/11/11 01:12:07;;;;;;;132.57;67.20;;;;;;;;;;6180973;28;20042;-76
2022/11/11 01:15:07;;;;;;;148.30;70.65;;;;;;;;;;6196490;28;20049;-76
2022/11/11 01:18:08;;;;;;;157.57;74.60;;;;;;;;;;6197940;28;20032;-76
2022/11/11 01:21:16;;;;;;;147.57;75.93;;;;;;;;;;6182127;28;20022;-76
2022/11/11 01:24:16;;;;;;;169.85;81.07;;;;;;;;;;6189031;28;20015;-77
2022/11/11 01:27:16;;;;;;;175.32;82.90;;;;;;;;;;6192381;28;20022;-77
2022/11/11 01:30:16;;;;;;;160.20;77.07;;;;;;;;;;6199795;28;20021;-76
2022/11/11 01:33:17;;;;;;;161.60;75.43;;;;;;;;;;6199109;28;20031;-76
2022/11/11 01:36:21;;;;;;;140.07;71.40;;;;;;;;;;6198134;28;20426;-76
2022/11/11 01:39:21;;;;;;;165.65;83.55;;;;;;;;;;6199331;28;20478;-76
2022/11/11 01:42:21;;;;;;;171.07;78.47;;;;;;;;;;6198757;28;20023;-77
2022/11/11 01:45:41;;;;;;;172.48;83.15;;;;;;;;;;6198053;28;20033;-77
2022/11/11 01:52:02;;;;;;;179.30;85.83;;;;;;;;;;6193728;28;20038;-77
2022/11/11 01:55:12;;;;;;;174.88;84.65;;;;;;;;;;6200082;28;20568;-77
2022/11/11 01:58:14;;;;;;;179.65;89.10;;;;;;;;;;6199171;28;20026;-77
2022/11/11 02:01:15;;;;;;;190.68;94.90;;;;;;;;;;6198012;28;20022;-77
2022/11/11 02:07:35;;;;;;;174.57;86.15;;;;;;;;;;6198763;28;20030;-77
2022/11/11 02:10:36;;;;;;;154.52;78.35;;;;;;;;;;6199392;28;20017;-77
2022/11/11 02:16:57;;;;;;;135.50;66.43;;;;;;;;;;6199678;28;20022;-77
2022/11/11 02:19:59;;;;;;;133.35;67.50;;;;;;;;;;6197693;28;20068;-77
2022/11/11 02:23:02;;;;;;;136.52;66.85;;;;;;;;;;6199229;28;20098;-78
2022/11/11 02:26:03;;;;;;;146.52;67.22;;;;;;;;;;6199782;28;20050;-77
2022/11/11 02:29:07;;;;;;;139.50;67.30;;;;;;;;;;6198558;28;20409;-78
2022/11/11 02:32:08;;;;;;;142.15;68.00;;;;;;;;;;6197297;28;20022;-77
2022/11/11 02:35:11;;;;;;;141.73;67.88;;;;;;;;;;6198665;28;20462;-77
2022/11/11 02:38:11;;;;;;;130.43;65.07;;;;;;;;;;6198879;28;20282;-77
2022/11/11 02:44:30;;;;;;;124.15;65.85;;;;;;;;;;6197821;28;20022;-77
2022/11/11 02:47:31;;;;;;;128.68;66.40;;;;;;;;;;6197605;28;20021;-77
2022/11/11 02:50:31;;;;;;;126.95;64.95;;;;;;;;;;6180809;28;20011;-77
2022/11/11 02:53:31;;;;;;;127.10;64.90;;;;;;;;;;6198556;28;20030;-77
2022/11/11 02:59:50;;;;;;;117.47;59.35;;;;;;;;;;6198346;28;20498;-77
2022/11/11 03:02:50;;;;;;;131.10;61.53;;;;;;;;;;6197669;28;20021;-77
2022/11/11 03:05:51;;;;;;;124.55;61.13;;;;;;;;;;6197657;28;20284;-77
2022/11/11 03:08:51;;;;;;;120.07;60.90;;;;;;;;;;6181267;28;20029;-77
2022/11/11 03:11:51;;;;;;;113.73;59.30;;;;;;;;;;6180457;28;20402;-77
2022/11/11 03:14:51;;;;;;;111.93;54.78;;;;;;;;;;6196223;28;21430;-77
2022/11/11 03:17:52;;;;;;;107.37;56.70;;;;;;;;;;6198279;28;20445;-77
2022/11/11 03:21:04;;;;;;;117.63;56.78;;;;;;;;;;6198010;28;20026;-77
2022/11/11 03:24:04;;;;;;;108.80;55.92;;;;;;;;;;6196721;28;20053;-77
2022/11/11 03:27:05;;;;;;;118.10;54.35;;;;;;;;;;6179839;28;20045;-77
2022/11/11 03:30:05;;;;;;;118.18;57.80;;;;;;;;;;6180105;28;20126;-77
2022/11/11 03:33:05;;;;;;;105.13;53.40;;;;;;;;;;6197866;28;20077;-77
2022/11/11 03:36:06;;;;;;;110.30;56.43;;;;;;;;;;6198557;28;20041;-77
2022/11/11 03:39:06;;;;;;;107.40;54.73;;;;;;;;;;6179689;28;20025;-77
2022/11/11 03:42:06;;;;;;;77.37;41.67;;;;;;;;;;6195213;28;20041;-77
2022/11/11 03:45:07;;;;;;;107.20;53.35;;;;;;;;;;6178998;28;20034;-77
2022/11/11 03:48:07;;;;;;;97.93;47.83;;;;;;;;;;6196932;28;20474;-77
2022/11/11 03:51:07;;;;;;;94.68;47.90;;;;;;;;;;6180034;28;20110;-77
2022/11/11 03:54:08;;;;;;;89.20;44.78;;;;;;;;;;6198143;28;20018;-77
2022/11/11 04:00:27;;;;;;;83.05;43.97;;;;;;;;;;6197300;28;20460;-77
2022/11/11 04:10:24;;;;;;;86.95;45.55;;;;;;;;;;6197279;28;20501;-77
2022/11/11 04:16:42;;;;;;;89.72;44.28;;;;;;;;;;6197735;28;20125;-76
2022/11/11 04:23:01;;;;;;;79.57;40.38;;;;;;;;;;6193949;28;20250;-76
2022/11/11 04:26:01;;;;;;;97.10;44.43;;;;;;;;;;6197396;28;20049;-76
2022/11/11 04:32:41;;;;;;;78.43;40.45;;;;;;;;;;6196797;28;20262;-77
2022/11/11 04:35:41;;;;;;;83.85;41.25;;;;;;;;;;6180304;28;20049;-76
2022/11/11 04:42:00;;;;;;;86.30;41.85;;;;;;;;;;6197108;28;20030;-76
2022/11/11 04:48:20;;;;;;;85.50;43.15;;;;;;;;;;6196782;28;20254;-76
2022/11/11 04:52:24;;;;;;;81.53;40.50;;;;;;;;;;6196885;28;20504;-76
2022/11/11 04:56:46;;;;;;;90.53;43.45;;;;;;;;;;6199560;28;20258;-77
2022/11/11 04:58:00;;;;;;;95.60;43.92;;;;;;;;;;6200793;28;20049;-77
2022/11/11 05:01:00;;;;;;;102.07;50.08;;;;;;;;;;6182911;28;20022;-77
2022/11/11 05:04:01;;;;;;;100.40;45.07;;;;;;;;;;6182474;28;20486;-77
2022/11/11 05:10:19;;;;;;;99.22;46.20;;;;;;;;;;6199120;28;20042;-76
2022/11/11 05:23:17;;;;;;;110.45;59.00;;;;;;;;;;6197740;28;20038;-77
2022/11/11 05:26:17;;;;;;;114.70;56.58;;;;;;;;;;6201339;28;20126;-77
2022/11/11 05:29:18;;;;;;;96.57;46.00;;;;;;;;;;6182198;28;20364;-77
2022/11/11 05:32:19;;;;;;;91.28;44.03;;;;;;;;;;6198834;28;20541;-77
2022/11/11 05:35:19;;;;;;;84.05;44.28;;;;;;;;;;6181679;28;20029;-77
2022/11/11 05:38:19;;;;;;;79.60;41.80;;;;;;;;;;6182084;28;20113;-77
2022/11/11 05:41:19;;;;;;;88.85;43.13;;;;;;;;;;6197301;28;20701;-76
2022/11/11 05:44:20;;;;;;;82.05;43.00;;;;;;;;;;6199943;28;20257;-77
2022/11/11 05:47:20;;;;;;;86.93;44.42;;;;;;;;;;6200026;28;20032;-77
2022/11/11 05:50:20;;;;;;;88.27;44.90;;;;;;;;;;6200216;28;20478;-77
2022/11/11 05:53:22;;;;;;;89.37;47.57;;;;;;;;;;6182984;28;20120;-77
2022/11/11 05:56:23;;;;;;;72.10;39.95;;;;;;;;;;6200561;28;20541;-77
2022/11/11 05:59:23;;;;;;;104.50;47.45;;;;;;;;;;6200035;28;20041;-77
2022/11/11 06:02:23;;;;;;;93.80;41.90;;;;;;;;;;6180938;28;20030;-77
2022/11/11 06:05:23;;;;;;;83.95;38.60;;;;;;;;;;6199175;28;20034;-77
2022/11/11 06:08:23;;;;;;;89.68;39.30;;;;;;;;;;6199831;28;20026;-77
2022/11/11 06:11:24;;;;;;;49.25;27.15;;;;;;;;;;6181498;28;20025;-77
2022/11/11 06:14:24;;;;;;;70.93;33.33;;;;;;;;;;6199468;28;20173;-77
2022/11/11 06:17:24;;;;;;;77.47;35.30;;;;;;;;;;6199480;28;20414;-77
2022/11/11 06:20:25;;;;;;;67.70;35.05;;;;;;;;;;6199481;28;20289;-77
2022/11/11 06:23:26;;;;;;;92.45;39.20;;;;;;;;;;6181260;28;20305;-76
2022/11/11 06:26:26;;;;;;;168.38;42.65;;;;;;;;;;6178942;28;20030;-76
2022/11/11 06:29:26;;;;;;;171.90;39.97;;;;;;;;;;6194737;28;20414;-77
2022/11/11 06:32:27;;;;;;;133.53;39.67;;;;;;;;;;6196833;28;20066;-77
2022/11/11 06:35:27;;;;;;;109.97;37.50;;;;;;;;;;6178677;28;20038;-77
2022/11/11 06:38:27;;;;;;;64.80;33.80;;;;;;;;;;6192095;28;20114;-77
2022/11/11 06:41:28;;;;;;;65.38;33.17;;;;;;;;;;6194468;28;20387;-77
2022/11/11 06:44:28;;;;;;;58.35;32.85;;;;;;;;;;6196618;28;20019;-77
2022/11/11 06:47:28;;;;;;;67.32;32.90;;;;;;;;;;6195107;28;20446;-77
2022/11/11 06:50:28;;;;;;;58.95;31.10;;;;;;;;;;6195300;28;20034;-77
2022/11/11 06:53:28;;;;;;;62.40;31.70;;;;;;;;;;6177672;28;20023;-77
2022/11/11 06:56:28;;;;;;;61.95;30.20;;;;;;;;;;6195147;28;20033;-77
2022/11/11 06:59:29;;;;;;;66.65;32.55;;;;;;;;;;6196031;28;20501;-77
2022/11/11 07:02:29;;;;;;;72.65;37.58;;;;;;;;;;6197414;28;20254;-77
2022/11/11 07:05:29;;;;;;;57.58;32.22;;;;;;;;;;6195215;28;20153;-76
2022/11/11 07:08:30;;;;;;;76.00;38.87;;;;;;;;;;6197206;28;20022;-76
2022/11/11 07:11:30;;;;;;;73.32;38.38;;;;;;;;;;6197289;28;20375;-77
2022/11/11 07:14:30;;;;;;;90.72;51.08;;;;;;;;;;6196444;28;20022;-77
2022/11/11 07:17:30;;;;;;;82.88;46.05;;;;;;;;;;6198390;28;20432;-76
2022/11/11 07:20:31;;;;;;;69.47;38.50;;;;;;;;;;6198141;28;20022;-76
2022/11/11 07:23:31;;;;;;;66.57;33.70;;;;;;;;;;6198026;28;20026;-77
2022/11/11 07:26:31;;;;;;;58.03;31.85;;;;;;;;;;6179421;28;20030;-77
2022/11/11 07:29:31;;;;;;;62.85;33.47;;;;;;;;;;6194781;28;20038;-76
2022/11/11 07:32:32;;;;;;;56.45;32.80;;;;;;;;;;6178000;28;20073;-76
2022/11/11 07:35:32;;;;;;;58.25;35.72;;;;;;;;;;6196847;28;20113;-76
2022/11/11 07:38:32;;;;;;;67.90;39.75;;;;;;;;;;6179236;28;20023;-76
2022/11/11 07:41:32;;;;;;;73.33;43.83;;;;;;;;;;6196981;28;20437;-77
2022/11/11 07:44:33;;;;;;;74.18;43.85;;;;;;;;;;6196518;28;20101;-77
2022/11/11 07:47:33;;;;;;;59.25;38.58;;;;;;;;;;6178016;28;20281;-77
2022/11/11 07:50:33;;;;;;;52.50;31.07;;;;;;;;;;6195215;28;20018;-77
2022/11/11 07:53:34;;;;;;;52.30;32.05;;;;;;;;;;6196872;28;20022;-76
2022/11/11 07:56:34;;;;;;;41.03;26.63;;;;;;;;;;6179445;28;20076;-77
2022/11/11 07:59:34;;;;;;;42.93;25.93;;;;;;;;;;6197673;28;20057;-77
2022/11/11 08:02:34;;;;;;;40.90;27.10;;;;;;;;;;6195990;28;20037;-77
2022/11/11 08:05:35;;;;;;;52.73;31.90;;;;;;;;;;6197683;28;20050;-77
2022/11/11 08:08:35;;;;;;;49.40;31.90;;;;;;;;;;6162877;28;20027;-77
2022/11/11 08:14:54;;;;;;;51.60;32.65;;;;;;;;;;6196607;28;20117;-77
2022/11/11 08:17:54;;;;;;;45.27;26.93;;;;;;;;;;6194817;28;20033;-77
2022/11/11 08:20:54;;;;;;;40.50;28.17;;;;;;;;;;6196066;28;20101;-77
2022/11/11 08:23:54;;;;;;;40.92;25.83;;;;;;;;;;6194707;28;20014;-77
2022/11/11 08:26:55;;;;;;;34.90;24.83;;;;;;;;;;6181993;28;20149;-77
2022/11/11 08:29:55;;;;;;;43.70;24.87;;;;;;;;;;6203050;28;20010;-77
2022/11/11 08:32:59;;;;;;;36.87;23.27;;;;;;;;;;6199310;28;20019;-77
2022/11/11 08:36:00;;;;;;;38.05;25.00;;;;;;;;;;6202311;28;20101;-77
2022/11/11 08:39:00;;;;;;;35.13;22.80;;;;;;;;;;6202211;28;20378;-76
2022/11/11 08:42:00;;;;;;;39.73;22.80;;;;;;;;;;6201357;28;20385;-76
2022/11/11 08:45:00;;;;;;;38.73;24.07;;;;;;;;;;6202280;28;20026;-77
2022/11/11 08:48:00;;;;;;;40.40;24.23;;;;;;;;;;6203533;28;20074;-76
2022/11/11 08:51:01;;;;;;;40.00;24.30;;;;;;;;;;6203089;28;20485;-76
2022/11/11 08:54:01;;;;;;;38.63;25.03;;;;;;;;;;6184584;28;20010;-77
2022/11/11 08:57:01;;;;;;;33.53;20.63;;;;;;;;;;6202099;28;20016;-77
2022/11/11 09:00:03;;;;;;;35.17;18.63;;;;;;;;;;6201222;28;20028;-76
2022/11/11 09:03:04;;;;;;;29.55;17.77;;;;;;;;;;6200207;28;20032;-76
2022/11/11 09:06:04;;;;;;;30.27;16.38;;;;;;;;;;6197982;28;20092;-76
2022/11/11 09:09:05;;;;;;;22.87;13.17;;;;;;;;;;6196049;28;20049;-76
2022/11/11 09:12:06;;;;;;;20.67;13.10;;;;;;;;;;6198368;28;20026;-77
2022/11/11 09:15:06;;;;;;;22.87;13.10;;;;;;;;;;6198803;28;20018;-76
2022/11/11 09:18:07;;;;;;;19.23;13.13;;;;;;;;;;6196762;28;20030;-76
2022/11/11 09:21:07;;;;;;;;;;;;;;;;;;6195198;28;20405;-76
2022/11/11 09:24:08;;;;;;;22.33;11.15;;;;;;;;;;6197819;28;20337;-76
2022/11/11 09:27:09;;;;;;;19.17;11.70;;;;;;;;;;6197620;28;20025;-76
2022/11/11 09:30:10;;;;;;;18.27;11.48;;;;;;;;;;6198265;28;20026;-76
2022/11/11 09:33:11;;;;;;;18.52;11.57;;;;;;;;;;6196709;28;20022;-76
2022/11/11 09:36:11;;;;;;;20.80;11.98;;;;;;;;;;6197110;28;20026;-75
2022/11/11 09:39:11;;;;;;;21.63;11.43;;;;;;;;;;6198779;28;20033;-75
2022/11/11 09:42:31;;;;;;;20.33;10.27;;;;;;;;;;6197832;28;20019;-76
2022/11/11 09:45:57;;;;;;;19.25;11.15;;;;;;;;;;6198611;28;20433;-76
2022/11/11 09:49:06;;;;;;;18.58;12.13;;;;;;;;;;6191575;28;20035;-76
2022/11/11 09:52:09;;;;;;;24.35;12.32;;;;;;;;;;6196279;28;20529;-76
2022/11/11 09:55:16;;;;;;;22.50;11.20;;;;;;;;;;6195551;28;20060;-76
2022/11/11 09:58:21;;;;;;;23.25;11.88;;;;;;;;;;6199539;28;20022;-75
2022/11/11 10:01:21;;;;;;;20.75;11.10;;;;;;;;;;6199611;28;20097;-76
2022/11/11 10:04:37;;;;;;;21.40;10.10;;;;;;;;;;6181634;28;20031;-76
2022/11/11 10:07:53;;;;;;;20.20;11.32;;;;;;;;;;6181257;28;20450;-76
2022/11/11 10:10:54;;;;;;;24.45;11.75;;;;;;;;;;6199775;28;20030;-76
2022/11/11 10:13:55;;;;;;;22.88;11.57;;;;;;;;;;6199614;28;20018;-76
2022/11/11 10:17:17;;;;;;;19.30;10.80;;;;;;;;;;6180643;28;20068;-76
2022/11/11 10:20:29;;;;;;;24.70;12.40;;;;;;;;;;6202288;28;20025;-75
2022/11/11 10:23:31;;;;;;;21.67;9.30;;;;;;;;;;6200951;28;20026;-76
2022/11/11 10:26:36;;;;;;;18.27;9.10;;;;;;;;;;6197386;28;20026;-76
2022/11/11 10:29:45;;;;;;;15.32;8.40;;;;;;;;;;6196975;28;20058;-76
2022/11/11 10:32:48;;;;;;;16.15;8.65;;;;;;;;;;6180677;28;20030;-76
2022/11/11 10:35:49;;;;;;;17.42;9.23;;;;;;;;;;6192613;28;20026;-75
2022/11/11 10:39:03;;;;;;;15.77;8.97;;;;;;;;;;6198362;28;20596;-75
2022/11/11 10:42:03;;;;;;;15.52;8.20;;;;;;;;;;6197381;28;20057;-76
2022/11/11 10:45:10;;;;;;;17.10;8.80;;;;;;;;;;6197167;28;20022;-76
2022/11/11 10:48:19;;;;;;;15.25;8.27;;;;;;;;;;6193968;28;20022;-76
2022/11/11 10:51:21;;;;;;;17.38;9.30;;;;;;;;;;6196105;28;20018;-75
2022/11/11 10:54:30;;;;;;;15.95;8.68;;;;;;;;;;6201144;28;20081;-76
2022/11/11 10:57:37;;;;;;;21.98;10.90;;;;;;;;;;6200974;28;20291;-75
2022/11/11 11:00:38;;;;;;;16.27;8.25;;;;;;;;;;6192776;28;20255;-75
2022/11/11 11:03:41;;;;;;;16.35;8.60;;;;;;;;;;6195922;28;20145;-76
2022/11/11 11:06:43;;;;;;;16.40;7.85;;;;;;;;;;6198327;28;20030;-76
2022/11/11 11:09:54;;;;;;;19.25;8.18;;;;;;;;;;6177010;28;20117;-75
2022/11/11 11:13:03;;;;;;;16.83;9.25;;;;;;;;;;6201506;28;20034;-76
2022/11/11 11:16:05;;;;;;;14.13;8.80;;;;;;;;;;6179804;28;20121;-75
2022/11/11 11:19:22;;;;;;;15.27;7.55;;;;;;;;;;6198209;28;20029;-76
2022/11/11 11:22:42;;;;;;;19.15;8.15;;;;;;;;;;6182193;28;20057;-76
2022/11/11 11:25:50;;;;;;;15.18;7.63;;;;;;;;;;6179512;28;20117;-76
2022/11/11 11:28:51;;;;;;;12.98;7.30;;;;;;;;;;6199950;28;20034;-76
2022/11/11 11:31:52;;;;;;;14.10;7.28;;;;;;;;;;6196167;28;20030;-76
2022/11/11 11:34:53;;;;;;;11.90;6.97;;;;;;;;;;6195834;28;20026;-77
2022/11/11 11:37:53;;;;;;;15.27;8.00;;;;;;;;;;6209963;28;20092;-77
2022/11/11 11:40:57;;;;;;;18.15;8.68;;;;;;;;;;6179100;28;20031;-77
2022/11/11 11:43:58;;;;;;;17.60;8.80;;;;;;;;;;6195278;28;20030;-77
2022/11/11 11:47:17;;;;;;;14.20;7.87;;;;;;;;;;6193578;28;20018;-76
2022/11/11 11:50:26;;;;;;;16.65;8.90;;;;;;;;;;6191422;28;20034;-77
2022/11/11 11:53:45;;;;;;;17.55;8.73;;;;;;;;;;6194173;28;20037;-76
2022/11/11 11:56:47;;;;;;;18.48;9.45;;;;;;;;;;6193446;28;20038;-77
2022/11/11 11:59:54;;;;;;;20.85;10.07;;;;;;;;;;6196526;28;20022;-77
2022/11/11 12:03:00;;;;;;;16.55;9.27;;;;;;;;;;6180653;28;20022;-77
2022/11/11 12:06:12;;;;;;;16.48;8.63;;;;;;;;;;6181620;28;20466;-76
2022/11/11 12:09:20;;;;;;;18.58;8.88;;;;;;;;;;6199552;28;20029;-76
2022/11/11 12:12:23;;;;;;;20.80;9.25;;;;;;;;;;6197797;28;20398;-76
2022/11/11 12:15:38;;;;;;;17.25;9.52;;;;;;;;;;6184489;28;20022;-76
2022/11/11 12:18:38;;;;;;;19.85;11.18;;;;;;;;;;6199207;28;20084;-76
2022/11/11 12:21:43;;;;;;;21.55;11.27;;;;;;;;;;6199564;28;20018;-77
2022/11/11 12:25:06;;;;;;;22.38;10.70;;;;;;;;;;6200168;28;20478;-76
2022/11/11 12:28:06;;;;;;;19.27;9.73;;;;;;;;;;6198795;28;20026;-76
2022/11/11 12:31:07;;;;;;;23.67;12.52;;;;;;;;;;6198530;28;20462;-76
2022/11/11 12:34:07;;;;;;;20.17;10.85;;;;;;;;;;6199581;28;20019;-76
2022/11/11 12:37:26;;;;;;;23.50;12.13;;;;;;;;;;6199287;28;20038;-77
2022/11/11 12:40:26;;;;;;;24.67;12.25;;;;;;;;;;6201506;28;20037;-76
2022/11/11 12:43:29;;;;;;;14.43;7.97;;;;;;;;;;6201791;28;20014;-76
2022/11/11 12:46:38;;;;;;;19.63;10.00;;;;;;;;;;6202110;28;20014;-77
2022/11/11 12:49:50;;;;;;;13.88;8.20;;;;;;;;;;6200901;28;20022;-76
2022/11/11 12:52:54;;;;;;;17.73;8.70;;;;;;;;;;6200589;28;20034;-76
2022/11/11 12:56:07;;;;;;;21.88;10.57;;;;;;;;;;6184657;28;20093;-76
2022/11/11 12:59:10;;;;;;;16.52;8.35;;;;;;;;;;6196788;28;20025;-76
2022/11/11 13:02:13;;;;;;;18.67;9.38;;;;;;;;;;6199331;28;20309;-76
2022/11/11 13:05:18;;;;;;;19.17;9.63;;;;;;;;;;6198119;28;20495;-76
2022/11/11 13:08:37;;;;;;;20.25;10.80;;;;;;;;;;6193571;28;20121;-76
2022/11/11 13:12:07;;;;;;;19.30;9.45;;;;;;;;;;6195949;28;20026;-77
2022/11/11 13:15:15;;;;;;;23.95;10.95;;;;;;;;;;6091568;28;20493;-76
2022/11/11 13:18:22;;;;;;;22.45;9.85;;;;;;;;;;6198153;28;20026;-76
2022/11/11 13:21:26;;;;;;;21.83;11.98;;;;;;;;;;6175860;28;20018;-76
2022/11/11 13:24:27;;;;;;;31.35;14.60;;;;;;;;;;6198386;28;20042;-76
2022/11/11 13:27:32;;;;;;;37.07;18.40;;;;;;;;;;6197015;28;20474;-75
2022/11/11 13:30:38;;;;;;;28.08;13.95;;;;;;;;;;6200917;28;20019;-74
2022/11/11 13:33:43;;;;;;;24.30;14.15;;;;;;;;;;6201278;28;20019;-75
2022/11/11 13:36:45;;;;;;;20.35;12.10;;;;;;;;;;6200386;28;20022;-75
2022/11/11 13:39:46;;;;;;;20.45;11.77;;;;;;;;;;6183551;28;20019;-75
2022/11/11 13:42:49;;;;;;;25.63;14.23;;;;;;;;;;6181792;28;20033;-75
2022/11/11 13:45:51;;;;;;;26.30;15.18;;;;;;;;;;6196800;28;20026;-75
2022/11/11 13:48:51;;;;;;;;;;;;;;;;;;6180416;28;20085;-75
2022/11/11 13:51:59;;;;;;;28.42;15.57;;;;;;;;;;6183036;28;19910;-75
2022/11/11 13:55:01;;;;;;;20.67;11.88;;;;;;;;;;6199762;28;20061;-75
2022/11/11 13:58:01;;;;;;;;;;;;;;;;;;6182825;28;20513;-75
2022/11/11 14:01:03;;;;;;;19.08;10.77;;;;;;;;;;6200072;28;20332;-75
2022/11/11 14:04:05;;;;;;;18.45;9.55;;;;;;;;;;6200127;28;20022;-76
2022/11/11 14:07:06;;;;;;;17.63;9.35;;;;;;;;;;6200249;28;20030;-76
2022/11/11 14:10:06;;;;;;;17.80;9.37;;;;;;;;;;6200061;28;20018;-77
2022/11/11 14:13:22;;;;;;;23.20;12.43;;;;;;;;;;6199206;28;20410;-75
2022/11/11 14:16:34;;;;;;;24.77;13.60;;;;;;;;;;6198458;28;20041;-76
2022/11/11 14:19:35;;;;;;;33.40;14.13;;;;;;;;;;6199860;28;20026;-76
2022/11/11 14:22:35;;;;;;;26.23;13.77;;;;;;;;;;6199070;28;20029;-76
2022/11/11 14:25:35;;;;;;;21.00;12.03;;;;;;;;;;6199150;28;20368;-77
2022/11/11 14:28:40;;;;;;;27.60;14.30;;;;;;;;;;6198624;28;20032;-76
2022/11/11 14:31:46;;;;;;;25.42;13.63;;;;;;;;;;6199672;28;20030;-77
2022/11/11 14:34:51;;;;;;;26.23;14.38;;;;;;;;;;6192705;28;20080;-76
2022/11/11 14:37:51;;;;;;;30.92;15.55;;;;;;;;;;6179418;28;20406;-76
2022/11/11 14:40:52;;;;;;;27.98;14.68;;;;;;;;;;6196555;28;20166;-77
2022/11/11 14:43:52;;;;;;;51.97;30.20;;;;;;;;;;6180706;28;20107;-76
2022/11/11 14:47:01;;;;;;;38.30;24.60;;;;;;;;;;6179826;28;20022;-76
2022/11/11 14:50:01;;;;;;;37.88;22.65;;;;;;;;;;6193105;28;20503;-77
2022/11/11 14:53:11;;;;;;;56.53;28.80;;;;;;;;;;6178664;28;20031;-77
2022/11/11 14:56:13;;;;;;;49.40;25.85;;;;;;;;;;6180294;28;20038;-77
2022/11/11 14:59:17;;;;;;;42.05;25.13;;;;;;;;;;6199398;28;20022;-76
2022/11/11 15:02:26;;;;;;;41.25;23.08;;;;;;;;;;6199315;28;20044;-76
2022/11/11 15:05:41;;;;;;;46.63;24.65;;;;;;;;;;6193728;28;20400;-76
2022/11/11 15:08:48;;;;;;;54.05;26.65;;;;;;;;;;6193614;28;20180;-76
2022/11/11 15:12:01;;;;;;;49.28;26.73;;;;;;;;;;6198298;28;20351;-76
2022/11/11 15:15:11;;;;;;;55.92;30.10;;;;;;;;;;6197904;28;20494;-76
2022/11/11 15:18:31;;;;;;;55.47;29.00;;;;;;;;;;6198002;28;20018;-76
2022/11/11 15:21:33;;;;;;;57.03;31.17;;;;;;;;;;6195988;28;20387;-76
2022/11/11 15:24:41;;;;;;;56.65;32.25;;;;;;;;;;6179873;28;20105;-76
2022/11/11 15:27:57;;;;;;;43.42;26.02;;;;;;;;;;6197297;28;20033;-77
2022/11/11 15:31:03;;;;;;;68.72;37.92;;;;;;;;;;6175409;28;20054;-76
2022/11/11 15:34:16;;;;;;;57.00;33.45;;;;;;;;;;6197425;28;20030;-76
2022/11/11 15:37:18;;;;;;;82.32;45.30;;;;;;;;;;6196785;28;20027;-76
2022/11/11 15:40:23;;;;;;;63.30;37.25;;;;;;;;;;6197302;28;20029;-76
2022/11/11 15:43:25;;;;;;;72.57;38.67;;;;;;;;;;6195835;28;20018;-77
2022/11/11 15:46:27;;;;;;;79.00;43.10;;;;;;;;;;6178700;28;20030;-77
2022/11/11 15:49:44;;;;;;;71.80;43.35;;;;;;;;;;6179822;28;20037;-76
2022/11/11 15:52:44;;;;;;;73.18;41.60;;;;;;;;;;6194691;28;20041;-76
2022/11/11 15:55:50;;;;;;;75.88;47.92;;;;;;;;;;6175549;28;20394;-77
2022/11/11 15:58:50;;;;;;;72.50;46.97;;;;;;;;;;6193635;28;20034;-76
2022/11/11 16:01:51;;;;;;;86.75;57.25;;;;;;;;;;6175975;28;20446;-76
2022/11/11 16:04:56;;;;;;;102.30;69.27;;;;;;;;;;6192665;28;20789;-76
2022/11/11 16:08:06;;;;;;;92.82;61.30;;;;;;;;;;6194579;28;20027;-77
2022/11/11 16:11:09;;;;;;;78.95;56.65;;;;;;;;;;6188010;28;20513;-77
2022/11/11 16:14:18;;;;;;;73.55;46.03;;;;;;;;;;6191067;28;20027;-77
2022/11/11 16:17:19;;;;;;;61.47;39.38;;;;;;;;;;6172328;28;20025;-76
2022/11/11 16:20:23;;;;;;;55.70;38.42;;;;;;;;;;6191851;28;20386;-76
2022/11/11 16:23:24;;;;;;;55.47;34.65;;;;;;;;;;6189188;28;20533;-76
2022/11/11 16:26:25;;;;;;;49.78;33.00;;;;;;;;;;6193596;28;20025;-76
2022/11/11 16:29:28;;;;;;;59.33;33.33;;;;;;;;;;6190708;28;20034;-76
2022/11/11 16:32:28;;;;;;;57.53;37.80;;;;;;;;;;6192632;28;20034;-76
2022/11/11 16:35:36;;;;;;;64.85;41.08;;;;;;;;;;6194752;28;20038;-77
2022/11/11 16:38:39;;;;;;;64.85;41.72;;;;;;;;;;6195587;28;20117;-77
2022/11/11 16:41:41;;;;;;;66.07;40.95;;;;;;;;;;6192790;28;20045;-77
2022/11/11 16:44:59;;;;;;;57.75;35.83;;;;;;;;;;6195756;28;20025;-77
2022/11/11 16:48:00;;;;;;;66.93;40.92;;;;;;;;;;6192791;28;20029;-76
2022/11/11 16:51:02;;;;;;;63.38;39.40;;;;;;;;;;6195406;28;20015;-76
2022/11/11 16:54:21;;;;;;;70.43;41.50;;;;;;;;;;6198119;28;20467;-77
2022/11/11 16:57:25;;;;;;;102.10;61.55;;;;;;;;;;6198574;28;20037;-77
2022/11/11 17:00:25;;;;;;;88.10;48.97;;;;;;;;;;6193252;28;20054;-77
2022/11/11 17:03:26;;;;;;;86.50;49.67;;;;;;;;;;6197788;28;20033;-77
2022/11/11 17:06:44;;;;;;;75.33;44.90;;;;;;;;;;6195269;28;20120;-77
2022/11/11 17:09:44;;;;;;;80.65;44.65;;;;;;;;;;6191306;28;20089;-77
2022/11/11 17:12:46;;;;;;;72.68;41.72;;;;;;;;;;6200705;28;20026;-77
2022/11/11 17:15:46;;;;;;;75.75;42.38;;;;;;;;;;6200022;28;20119;-77
2022/11/11 17:18:46;;;;;;;74.78;41.25;;;;;;;;;;6182893;28;20030;-77
2022/11/11 17:21:47;;;;;;;76.22;44.30;;;;;;;;;;6199620;28;20030;-76
2022/11/11 17:24:47;;;;;;;81.90;44.60;;;;;;;;;;6198597;28;20026;-76
2022/11/11 17:27:47;;;;;;;82.63;44.70;;;;;;;;;;6180894;28;20029;-76
2022/11/11 17:30:47;;;;;;;77.30;44.23;;;;;;;;;;6199064;28;20026;-76
2022/11/11 17:33:48;;;;;;;66.43;42.15;;;;;;;;;;6199423;28;20019;-77
2022/11/11 17:36:48;;;;;;;73.73;41.00;;;;;;;;;;6196835;28;20058;-76
2022/11/11 17:39:49;;;;;;;88.43;50.33;;;;;;;;;;6197608;28;20026;-76
2022/11/11 17:42:49;;;;;;;103.87;59.20;;;;;;;;;;6197135;28;20505;-77
2022/11/11 17:45:50;;;;;;;107.80;60.08;;;;;;;;;;6196602;28;20281;-77
2022/11/11 17:48:54;;;;;;;106.80;62.25;;;;;;;;;;6194990;28;20281;-77
2022/11/11 17:51:54;;;;;;;104.50;58.95;;;;;;;;;;6194872;28;20030;-77
2022/11/11 17:54:54;;;;;;;67.00;41.50;;;;;;;;;;6195912;28;20486;-77
2022/11/11 17:57:56;;;;;;;93.72;52.95;;;;;;;;;;6180322;28;20258;-77
2022/11/11 18:01:03;;;;;;;103.30;56.63;;;;;;;;;;6180767;28;20069;-77
2022/11/11 18:04:03;;;;;;;107.55;61.45;;;;;;;;;;6193994;28;20029;-77
2022/11/11 18:07:03;;;;;;;110.30;63.03;;;;;;;;;;6197430;28;20027;-77
2022/11/11 18:10:04;;;;;;;103.40;61.40;;;;;;;;;;6181501;28;20049;-77
2022/11/11 18:13:04;;;;;;;110.03;63.65;;;;;;;;;;6187894;28;20121;-77
2022/11/11 18:16:04;;;;;;;92.78;58.10;;;;;;;;;;6197805;28;20022;-77
2022/11/11 18:19:05;;;;;;;111.90;64.13;;;;;;;;;;6196109;28;20030;-77
2022/11/11 18:22:05;;;;;;;100.50;59.07;;;;;;;;;;6198359;28;20351;-77
2022/11/11 18:25:05;;;;;;;90.30;54.33;;;;;;;;;;6179977;28;20028;-77
2022/11/11 18:28:05;;;;;;;103.53;57.35;;;;;;;;;;6198349;28;20265;-77
2022/11/11 18:31:07;;;;;;;93.22;53.88;;;;;;;;;;6197703;28;20038;-77
2022/11/11 18:34:07;;;;;;;108.07;62.67;;;;;;;;;;6196202;28;20090;-77
2022/11/11 18:37:07;;;;;;;104.68;61.30;;;;;;;;;;6180756;28;20037;-77
2022/11/11 18:40:08;;;;;;;102.40;54.45;;;;;;;;;;6197131;28;20029;-77
2022/11/11 18:43:08;;;;;;;101.40;54.70;;;;;;;;;;6196187;28;20026;-77
2022/11/11 18:46:15;;;;;;;83.00;52.92;;;;;;;;;;6197256;28;20030;-77
2022/11/11 18:49:16;;;;;;;97.30;54.45;;;;;;;;;;6196915;28;20277;-77
2022/11/11 18:52:16;;;;;;;92.05;53.92;;;;;;;;;;6196233;28;20030;-76
2022/11/11 18:55:16;;;;;;;97.40;55.40;;;;;;;;;;6197176;28;20054;-76
2022/11/11 18:58:16;;;;;;;104.80;61.13;;;;;;;;;;6197970;28;20045;-76
2022/11/11 19:01:24;;;;;;;97.50;56.00;;;;;;;;;;6193725;28;20029;-76